Messwerte Anchorage – Elmendor

Temperatur

Temperatur
°C
1575514800 18.00 18.00 -11
1575518400 19.00 19.00 -11
1575522000 20.00 20.00 -12
1575525600 21.00 21.00 -11
1575529200 22.00 22.00 -12
1575532800 23.00 23.00 -13
1575536400 0.00 0.00 -12
1575540000 1.00 1.00 -11
1575543600 2.00 2.00 -10
1575547200 3.00 3.00 -10
1575550800 4.00 4.00 -11
1575554400 5.00 5.00 -11
1575558000 6.00 6.00 -11
1575561600 7.00 7.00
1575565200 8.00 8.00 -12
1575568800 9.00 9.00 -13
1575572400 10.00 10.00 -14
1575576000 11.00 11.00 -14
1575579600 12.00 12.00 -13
1575583200 13.00 13.00 -13
1575586800 14.00 14.00 -13
1575590400 15.00 15.00
1575594000 16.00 16.00 -14
1575597600 17.00 17.00 -13

Aktuellste Messwerte

Wettercharakter
Wetter: wechselnd bewölkt
Temperatur
-13 °C
Feuchtigkeit
85 %
Wind
5 km/hWindrichtung: Nord
Luftdruck
1008 hPa
Messzeit: 5. Dezember 2019, 18.00Datenquelle: METAR

Weitere Messstationen in der Nähe

Messstation Temperatur Entfernung
Anchorage -12 °C 4 km
Ft. Richardson -15 °C 8 km
Anchorage -12 °C 12 km
Anchorage -11 °C 15 km
Birchwood -14 °C 24 km
Wasilla -17 °C 38 km
Palmer -13 °C 55 km

Wind

Windrichtung Böen Mittelwind
° km/h km/h
1575514800 18.00 17.00 - 18.00 0
1575518400 19.00 18.00 - 19.00 70° 5
1575522000 20.00 19.00 - 20.00 50° 5
1575525600 21.00 20.00 - 21.00 70° 10
1575529200 22.00 21.00 - 22.00 80° 10
1575532800 23.00 22.00 - 23.00 80° 10
1575536400 0.00 23.00 - 0.00 70° 10
1575540000 1.00 0.00 - 1.00 80° 5
1575543600 2.00 1.00 - 2.00 50° 15
1575547200 3.00 2.00 - 3.00 0
1575550800 4.00 3.00 - 4.00 30° 5
1575554400 5.00 4.00 - 5.00 0
1575558000 6.00 5.00 - 6.00 350° 10
1575561600 7.00 6.00 - 7.00
1575565200 8.00 7.00 - 8.00 10° 15
1575568800 9.00 8.00 - 9.00 30° 5
1575572400 10.00 9.00 - 10.00 360° 10
1575576000 11.00 10.00 - 11.00 30° 10
1575579600 12.00 11.00 - 12.00 20° 10
1575583200 13.00 12.00 - 13.00 0
1575586800 14.00 13.00 - 14.00 40° 5
1575590400 15.00 14.00 - 15.00
1575594000 16.00 15.00 - 16.00 50° 5
1575597600 17.00 16.00 - 17.00 5

Ihre Wetterstation

Fehlt Ihre Wetterstation auf unserem Portal?

Schreiben Sie an network@meteonews.ch

Klima

Wann ist es am wärmsten? Wann regnet es am wenigsten? Unsere Klimadaten geben Auskunft.